sensor_id;sensor_type;location;lat;lon;timestamp;temperature;humidity
44121;DHT22;29783;52.504;13.478;2023-11-19T00:00:19;4.70;85.50
44121;DHT22;29783;52.504;13.478;2023-11-19T00:02:45;4.70;85.70
44121;DHT22;29783;52.504;13.478;2023-11-19T00:05:12;4.70;85.80
44121;DHT22;29783;52.504;13.478;2023-11-19T00:07:39;4.70;85.90
44121;DHT22;29783;52.504;13.478;2023-11-19T00:12:35;4.60;86.10
44121;DHT22;29783;52.504;13.478;2023-11-19T00:15:01;4.70;85.90
44121;DHT22;29783;52.504;13.478;2023-11-19T00:17:27;4.60;86.00
44121;DHT22;29783;52.504;13.478;2023-11-19T00:19:53;4.60;85.80
44121;DHT22;29783;52.504;13.478;2023-11-19T00:22:18;4.60;85.80
44121;DHT22;29783;52.504;13.478;2023-11-19T00:24:46;4.60;85.80
44121;DHT22;29783;52.504;13.478;2023-11-19T00:27:12;4.60;85.80
44121;DHT22;29783;52.504;13.478;2023-11-19T00:29:37;4.60;85.70
44121;DHT22;29783;52.504;13.478;2023-11-19T00:32:03;4.70;85.50
44121;DHT22;29783;52.504;13.478;2023-11-19T00:34:30;4.70;85.50
44121;DHT22;29783;52.504;13.478;2023-11-19T00:36:56;4.60;85.50
44121;DHT22;29783;52.504;13.478;2023-11-19T00:39:22;4.60;85.40
44121;DHT22;29783;52.504;13.478;2023-11-19T00:41:48;4.60;85.30
44121;DHT22;29783;52.504;13.478;2023-11-19T00:44:13;4.70;85.10
44121;DHT22;29783;52.504;13.478;2023-11-19T00:46:39;4.70;85.00
44121;DHT22;29783;52.504;13.478;2023-11-19T00:49:05;4.70;85.10
44121;DHT22;29783;52.504;13.478;2023-11-19T00:51:30;4.70;85.10
44121;DHT22;29783;52.504;13.478;2023-11-19T00:53:57;4.70;85.20
44121;DHT22;29783;52.504;13.478;2023-11-19T00:56:23;4.60;85.30
44121;DHT22;29783;52.504;13.478;2023-11-19T00:58:49;4.70;85.20
44121;DHT22;29783;52.504;13.478;2023-11-19T01:01:15;4.70;85.20
44121;DHT22;29783;52.504;13.478;2023-11-19T01:03:40;4.70;84.90
44121;DHT22;29783;52.504;13.478;2023-11-19T01:06:06;4.70;84.80
44121;DHT22;29783;52.504;13.478;2023-11-19T01:08:33;4.70;84.60
44121;DHT22;29783;52.504;13.478;2023-11-19T01:11:01;4.70;84.50
44121;DHT22;29783;52.504;13.478;2023-11-19T01:13:27;4.70;84.60
44121;DHT22;29783;52.504;13.478;2023-11-19T01:15:53;4.70;84.60
44121;DHT22;29783;52.504;13.478;2023-11-19T01:18:21;4.70;84.40
44121;DHT22;29783;52.504;13.478;2023-11-19T01:20:47;4.70;84.60
44121;DHT22;29783;52.504;13.478;2023-11-19T01:23:13;4.80;84.10
44121;DHT22;29783;52.504;13.478;2023-11-19T01:25:38;4.80;84.20
44121;DHT22;29783;52.504;13.478;2023-11-19T01:28:04;4.80;84.40
44121;DHT22;29783;52.504;13.478;2023-11-19T01:30:30;4.70;84.30
44121;DHT22;29783;52.504;13.478;2023-11-19T01:32:56;4.80;84.30
44121;DHT22;29783;52.504;13.478;2023-11-19T01:35:21;4.80;84.20
44121;DHT22;29783;52.504;13.478;2023-11-19T01:37:48;4.80;84.00
44121;DHT22;29783;52.504;13.478;2023-11-19T01:40:20;4.80;83.70
44121;DHT22;29783;52.504;13.478;2023-11-19T01:42:46;4.80;83.60
44121;DHT22;29783;52.504;13.478;2023-11-19T01:45:27;4.80;83.50
44121;DHT22;29783;52.504;13.478;2023-11-19T01:47:53;4.80;83.60
44121;DHT22;29783;52.504;13.478;2023-11-19T01:50:20;4.90;83.40
44121;DHT22;29783;52.504;13.478;2023-11-19T01:52:46;4.80;83.50
44121;DHT22;29783;52.504;13.478;2023-11-19T01:55:12;4.90;83.40
44121;DHT22;29783;52.504;13.478;2023-11-19T01:57:38;5.00;83.20
44121;DHT22;29783;52.504;13.478;2023-11-19T02:00:06;5.00;83.20
44121;DHT22;29783;52.504;13.478;2023-11-19T02:02:37;5.00;83.30
44121;DHT22;29783;52.504;13.478;2023-11-19T02:05:03;5.00;83.80
44121;DHT22;29783;52.504;13.478;2023-11-19T02:07:28;4.90;83.90
44121;DHT22;29783;52.504;13.478;2023-11-19T02:09:54;5.00;84.10
44121;DHT22;29783;52.504;13.478;2023-11-19T02:12:20;4.90;84.30
44121;DHT22;29783;52.504;13.478;2023-11-19T02:14:46;4.90;84.50
44121;DHT22;29783;52.504;13.478;2023-11-19T02:19:53;4.90;85.10
44121;DHT22;29783;52.504;13.478;2023-11-19T02:22:19;4.90;85.00
44121;DHT22;29783;52.504;13.478;2023-11-19T02:24:51;4.80;85.20
44121;DHT22;29783;52.504;13.478;2023-11-19T02:27:50;4.80;85.10
44121;DHT22;29783;52.504;13.478;2023-11-19T02:30:16;4.90;85.00
44121;DHT22;29783;52.504;13.478;2023-11-19T02:32:42;4.90;85.30
44121;DHT22;29783;52.504;13.478;2023-11-19T02:35:08;4.90;85.10
44121;DHT22;29783;52.504;13.478;2023-11-19T02:37:38;5.00;85.00
44121;DHT22;29783;52.504;13.478;2023-11-19T02:40:05;5.00;85.10
44121;DHT22;29783;52.504;13.478;2023-11-19T02:42:31;5.00;85.20
44121;DHT22;29783;52.504;13.478;2023-11-19T02:44:57;5.00;85.10
44121;DHT22;29783;52.504;13.478;2023-11-19T02:47:22;5.00;85.30
44121;DHT22;29783;52.504;13.478;2023-11-19T02:49:49;5.00;85.10
44121;DHT22;29783;52.504;13.478;2023-11-19T02:52:15;5.00;85.10
44121;DHT22;29783;52.504;13.478;2023-11-19T02:54:42;5.00;85.30
44121;DHT22;29783;52.504;13.478;2023-11-19T02:57:08;5.00;85.30
44121;DHT22;29783;52.504;13.478;2023-11-19T02:59:39;5.10;85.30
44121;DHT22;29783;52.504;13.478;2023-11-19T03:02:07;5.10;84.80
44121;DHT22;29783;52.504;13.478;2023-11-19T03:04:37;5.10;84.80
44121;DHT22;29783;52.504;13.478;2023-11-19T03:07:04;5.10;84.80
44121;DHT22;29783;52.504;13.478;2023-11-19T03:09:29;5.10;84.70
44121;DHT22;29783;52.504;13.478;2023-11-19T03:11:55;5.20;84.40
44121;DHT22;29783;52.504;13.478;2023-11-19T03:14:20;5.20;84.90
44121;DHT22;29783;52.504;13.478;2023-11-19T03:16:48;5.20;84.70
44121;DHT22;29783;52.504;13.478;2023-11-19T03:19:13;5.20;84.50
44121;DHT22;29783;52.504;13.478;2023-11-19T03:21:39;5.20;84.80
44121;DHT22;29783;52.504;13.478;2023-11-19T03:24:05;5.20;84.90
44121;DHT22;29783;52.504;13.478;2023-11-19T03:26:30;5.30;84.50
44121;DHT22;29783;52.504;13.478;2023-11-19T03:28:56;5.30;84.30
44121;DHT22;29783;52.504;13.478;2023-11-19T03:31:24;5.30;84.40
44121;DHT22;29783;52.504;13.478;2023-11-19T03:33:51;5.30;84.20
44121;DHT22;29783;52.504;13.478;2023-11-19T03:36:16;5.30;84.40
44121;DHT22;29783;52.504;13.478;2023-11-19T03:38:43;5.30;84.60
44121;DHT22;29783;52.504;13.478;2023-11-19T03:41:12;5.30;84.90
44121;DHT22;29783;52.504;13.478;2023-11-19T03:43:39;5.20;85.50
44121;DHT22;29783;52.504;13.478;2023-11-19T03:46:05;5.10;86.50
44121;DHT22;29783;52.504;13.478;2023-11-19T03:48:31;5.00;87.50
44121;DHT22;29783;52.504;13.478;2023-11-19T03:50:56;4.90;88.40
44121;DHT22;29783;52.504;13.478;2023-11-19T03:53:22;4.80;89.10
44121;DHT22;29783;52.504;13.478;2023-11-19T03:55:49;4.80;89.60
44121;DHT22;29783;52.504;13.478;2023-11-19T03:58:15;4.80;90.20
44121;DHT22;29783;52.504;13.478;2023-11-19T04:00:41;4.70;90.40
44121;DHT22;29783;52.504;13.478;2023-11-19T04:03:06;4.70;90.80
44121;DHT22;29783;52.504;13.478;2023-11-19T04:05:32;4.60;91.00
44121;DHT22;29783;52.504;13.478;2023-11-19T04:07:57;4.60;91.40
44121;DHT22;29783;52.504;13.478;2023-11-19T04:10:23;4.60;91.80
44121;DHT22;29783;52.504;13.478;2023-11-19T04:12:49;4.60;91.80
44121;DHT22;29783;52.504;13.478;2023-11-19T04:15:15;4.60;91.90
44121;DHT22;29783;52.504;13.478;2023-11-19T04:17:41;4.60;92.20
44121;DHT22;29783;52.504;13.478;2023-11-19T04:20:07;4.60;92.30
44121;DHT22;29783;52.504;13.478;2023-11-19T04:22:36;4.60;92.30
44121;DHT22;29783;52.504;13.478;2023-11-19T04:25:01;4.60;92.40
44121;DHT22;29783;52.504;13.478;2023-11-19T04:27:27;4.60;92.30
44121;DHT22;29783;52.504;13.478;2023-11-19T04:29:53;4.60;92.30
44121;DHT22;29783;52.504;13.478;2023-11-19T04:32:18;4.60;92.20
44121;DHT22;29783;52.504;13.478;2023-11-19T04:34:44;4.60;92.20
44121;DHT22;29783;52.504;13.478;2023-11-19T04:37:10;4.60;92.30
44121;DHT22;29783;52.504;13.478;2023-11-19T04:39:36;4.60;92.30
44121;DHT22;29783;52.504;13.478;2023-11-19T04:42:02;4.60;92.20
44121;DHT22;29783;52.504;13.478;2023-11-19T04:44:30;4.70;92.30
44121;DHT22;29783;52.504;13.478;2023-11-19T04:46:55;4.70;92.40
44121;DHT22;29783;52.504;13.478;2023-11-19T04:49:21;4.60;92.50
44121;DHT22;29783;52.504;13.478;2023-11-19T04:51:47;4.60;92.60
44121;DHT22;29783;52.504;13.478;2023-11-19T04:54:13;4.60;92.90
44121;DHT22;29783;52.504;13.478;2023-11-19T04:56:39;4.60;93.10
44121;DHT22;29783;52.504;13.478;2023-11-19T04:59:05;4.60;93.30
44121;DHT22;29783;52.504;13.478;2023-11-19T05:01:35;4.50;93.50
44121;DHT22;29783;52.504;13.478;2023-11-19T05:04:01;4.50;93.60
44121;DHT22;29783;52.504;13.478;2023-11-19T05:06:30;4.60;93.70
44121;DHT22;29783;52.504;13.478;2023-11-19T05:08:58;4.60;93.90
44121;DHT22;29783;52.504;13.478;2023-11-19T05:11:24;4.60;94.10
44121;DHT22;29783;52.504;13.478;2023-11-19T05:13:49;4.50;94.20
44121;DHT22;29783;52.504;13.478;2023-11-19T05:16:16;4.60;94.20
44121;DHT22;29783;52.504;13.478;2023-11-19T05:18:43;4.50;94.30
44121;DHT22;29783;52.504;13.478;2023-11-19T05:21:08;4.50;94.40
44121;DHT22;29783;52.504;13.478;2023-11-19T05:23:34;4.50;94.50
44121;DHT22;29783;52.504;13.478;2023-11-19T05:26:01;4.50;94.60
44121;DHT22;29783;52.504;13.478;2023-11-19T05:28:27;4.50;94.70
44121;DHT22;29783;52.504;13.478;2023-11-19T05:30:52;4.50;94.80
44121;DHT22;29783;52.504;13.478;2023-11-19T05:33:18;4.50;94.80
44121;DHT22;29783;52.504;13.478;2023-11-19T05:35:43;4.50;94.90
44121;DHT22;29783;52.504;13.478;2023-11-19T05:38:09;4.50;94.90
44121;DHT22;29783;52.504;13.478;2023-11-19T05:40:35;4.50;95.10
44121;DHT22;29783;52.504;13.478;2023-11-19T05:43:01;4.50;95.10
44121;DHT22;29783;52.504;13.478;2023-11-19T05:45:26;4.50;95.20
44121;DHT22;29783;52.504;13.478;2023-11-19T05:47:52;4.50;95.20
44121;DHT22;29783;52.504;13.478;2023-11-19T05:50:18;4.50;95.30
44121;DHT22;29783;52.504;13.478;2023-11-19T05:52:44;4.50;95.40
44121;DHT22;29783;52.504;13.478;2023-11-19T05:55:09;4.50;95.40
44121;DHT22;29783;52.504;13.478;2023-11-19T05:57:38;4.50;95.30
44121;DHT22;29783;52.504;13.478;2023-11-19T06:00:05;4.50;95.30
44121;DHT22;29783;52.504;13.478;2023-11-19T06:02:32;4.50;95.40
44121;DHT22;29783;52.504;13.478;2023-11-19T06:04:58;4.50;95.40
44121;DHT22;29783;52.504;13.478;2023-11-19T06:07:24;4.60;95.50
44121;DHT22;29783;52.504;13.478;2023-11-19T06:09:50;4.60;95.50
44121;DHT22;29783;52.504;13.478;2023-11-19T06:12:16;4.60;95.50
44121;DHT22;29783;52.504;13.478;2023-11-19T06:14:41;4.60;95.50
44121;DHT22;29783;52.504;13.478;2023-11-19T06:17:07;4.60;95.50
44121;DHT22;29783;52.504;13.478;2023-11-19T06:19:34;4.70;95.50
44121;DHT22;29783;52.504;13.478;2023-11-19T06:21:59;4.70;95.40
44121;DHT22;29783;52.504;13.478;2023-11-19T06:24:25;4.70;95.40
44121;DHT22;29783;52.504;13.478;2023-11-19T06:26:51;4.70;95.50
44121;DHT22;29783;52.504;13.478;2023-11-19T06:29:16;4.70;95.40
44121;DHT22;29783;52.504;13.478;2023-11-19T06:31:45;4.70;95.40
44121;DHT22;29783;52.504;13.478;2023-11-19T06:34:12;4.70;95.50
44121;DHT22;29783;52.504;13.478;2023-11-19T06:36:37;4.70;95.50
44121;DHT22;29783;52.504;13.478;2023-11-19T06:39:03;4.70;95.50
44121;DHT22;29783;52.504;13.478;2023-11-19T06:41:29;4.80;95.50
44121;DHT22;29783;52.504;13.478;2023-11-19T06:43:55;4.80;95.50
44121;DHT22;29783;52.504;13.478;2023-11-19T06:46:20;4.80;95.50
44121;DHT22;29783;52.504;13.478;2023-11-19T06:48:46;4.80;95.50
44121;DHT22;29783;52.504;13.478;2023-11-19T06:51:12;4.80;95.50
44121;DHT22;29783;52.504;13.478;2023-11-19T06:53:38;4.80;95.40
44121;DHT22;29783;52.504;13.478;2023-11-19T06:56:06;4.90;95.50
44121;DHT22;29783;52.504;13.478;2023-11-19T06:58:36;4.90;95.40
44121;DHT22;29783;52.504;13.478;2023-11-19T07:01:01;4.90;95.40
44121;DHT22;29783;52.504;13.478;2023-11-19T07:03:27;4.90;95.40
44121;DHT22;29783;52.504;13.478;2023-11-19T07:05:52;4.90;95.50
44121;DHT22;29783;52.504;13.478;2023-11-19T07:08:18;5.00;95.50
44121;DHT22;29783;52.504;13.478;2023-11-19T07:10:44;5.00;95.50
44121;DHT22;29783;52.504;13.478;2023-11-19T07:13:09;5.00;95.50
44121;DHT22;29783;52.504;13.478;2023-11-19T07:15:35;5.00;95.50
44121;DHT22;29783;52.504;13.478;2023-11-19T07:18:01;5.00;95.50
44121;DHT22;29783;52.504;13.478;2023-11-19T07:20:26;5.00;95.50
44121;DHT22;29783;52.504;13.478;2023-11-19T07:22:53;5.00;95.60
44121;DHT22;29783;52.504;13.478;2023-11-19T07:25:20;5.00;95.60
44121;DHT22;29783;52.504;13.478;2023-11-19T07:27:46;5.00;95.70
44121;DHT22;29783;52.504;13.478;2023-11-19T07:30:13;5.10;95.70
44121;DHT22;29783;52.504;13.478;2023-11-19T07:32:39;5.00;95.80
44121;DHT22;29783;52.504;13.478;2023-11-19T07:35:05;5.10;95.80
44121;DHT22;29783;52.504;13.478;2023-11-19T07:37:31;5.10;95.80
44121;DHT22;29783;52.504;13.478;2023-11-19T07:39:57;5.10;95.90
44121;DHT22;29783;52.504;13.478;2023-11-19T07:42:22;5.20;95.90
44121;DHT22;29783;52.504;13.478;2023-11-19T07:44:49;5.20;95.90
44121;DHT22;29783;52.504;13.478;2023-11-19T07:47:14;5.20;95.90
44121;DHT22;29783;52.504;13.478;2023-11-19T07:49:40;5.20;95.90
44121;DHT22;29783;52.504;13.478;2023-11-19T07:52:06;5.30;95.90
44121;DHT22;29783;52.504;13.478;2023-11-19T07:54:32;5.30;95.90
44121;DHT22;29783;52.504;13.478;2023-11-19T07:56:58;5.30;95.90
44121;DHT22;29783;52.504;13.478;2023-11-19T07:59:23;5.30;96.00
44121;DHT22;29783;52.504;13.478;2023-11-19T08:01:49;5.30;95.90
44121;DHT22;29783;52.504;13.478;2023-11-19T08:04:14;5.30;96.00
44121;DHT22;29783;52.504;13.478;2023-11-19T08:06:40;5.40;96.10
44121;DHT22;29783;52.504;13.478;2023-11-19T08:09:06;5.30;96.00
44121;DHT22;29783;52.504;13.478;2023-11-19T08:11:32;5.40;96.00
44121;DHT22;29783;52.504;13.478;2023-11-19T08:13:59;5.30;96.00
44121;DHT22;29783;52.504;13.478;2023-11-19T08:16:24;5.40;96.10
44121;DHT22;29783;52.504;13.478;2023-11-19T08:18:50;5.40;96.10
44121;DHT22;29783;52.504;13.478;2023-11-19T08:21:15;5.50;96.10
44121;DHT22;29783;52.504;13.478;2023-11-19T08:23:41;5.60;96.10
44121;DHT22;29783;52.504;13.478;2023-11-19T08:26:07;5.60;96.10
44121;DHT22;29783;52.504;13.478;2023-11-19T08:28:32;5.60;96.10
44121;DHT22;29783;52.504;13.478;2023-11-19T08:31:00;5.70;96.10
44121;DHT22;29783;52.504;13.478;2023-11-19T08:33:26;5.70;96.10
44121;DHT22;29783;52.504;13.478;2023-11-19T08:35:52;5.80;96.20
44121;DHT22;29783;52.504;13.478;2023-11-19T08:38:18;5.80;96.10
44121;DHT22;29783;52.504;13.478;2023-11-19T08:40:44;5.90;96.00
44121;DHT22;29783;52.504;13.478;2023-11-19T08:43:09;5.90;96.00
44121;DHT22;29783;52.504;13.478;2023-11-19T08:45:35;6.00;95.80
44121;DHT22;29783;52.504;13.478;2023-11-19T08:48:01;6.00;95.90
44121;DHT22;29783;52.504;13.478;2023-11-19T08:50:27;6.00;95.80
44121;DHT22;29783;52.504;13.478;2023-11-19T08:52:52;6.10;96.00
44121;DHT22;29783;52.504;13.478;2023-11-19T08:55:18;6.10;95.90
44121;DHT22;29783;52.504;13.478;2023-11-19T08:57:44;6.20;95.90
44121;DHT22;29783;52.504;13.478;2023-11-19T09:00:10;6.30;95.90
44121;DHT22;29783;52.504;13.478;2023-11-19T09:02:39;6.40;95.80
44121;DHT22;29783;52.504;13.478;2023-11-19T09:05:05;6.60;95.70
44121;DHT22;29783;52.504;13.478;2023-11-19T09:07:33;6.60;95.40
44121;DHT22;29783;52.504;13.478;2023-11-19T09:09:58;6.60;95.30
44121;DHT22;29783;52.504;13.478;2023-11-19T09:12:24;6.60;95.30
44121;DHT22;29783;52.504;13.478;2023-11-19T09:14:50;6.70;95.50
44121;DHT22;29783;52.504;13.478;2023-11-19T09:17:15;6.70;95.50
44121;DHT22;29783;52.504;13.478;2023-11-19T09:19:42;6.80;95.30
44121;DHT22;29783;52.504;13.478;2023-11-19T09:22:08;6.80;95.40
44121;DHT22;29783;52.504;13.478;2023-11-19T09:24:34;6.80;95.50
44121;DHT22;29783;52.504;13.478;2023-11-19T09:26:59;7.00;95.40
44121;DHT22;29783;52.504;13.478;2023-11-19T09:29:25;7.10;95.50
44121;DHT22;29783;52.504;13.478;2023-11-19T09:31:51;7.20;95.60
44121;DHT22;29783;52.504;13.478;2023-11-19T09:34:17;7.30;95.10
44121;DHT22;29783;52.504;13.478;2023-11-19T09:36:42;7.40;95.00
44121;DHT22;29783;52.504;13.478;2023-11-19T09:39:13;7.60;95.10
44121;DHT22;29783;52.504;13.478;2023-11-19T09:41:40;7.80;95.10
44121;DHT22;29783;52.504;13.478;2023-11-19T09:44:08;7.90;94.70
44121;DHT22;29783;52.504;13.478;2023-11-19T09:46:34;8.10;94.40
44121;DHT22;29783;52.504;13.478;2023-11-19T09:49:01;8.10;94.10
44121;DHT22;29783;52.504;13.478;2023-11-19T09:51:28;8.10;94.20
44121;DHT22;29783;52.504;13.478;2023-11-19T09:53:53;8.20;94.10
44121;DHT22;29783;52.504;13.478;2023-11-19T09:56:19;8.60;94.10
44121;DHT22;29783;52.504;13.478;2023-11-19T09:58:45;8.80;93.70
44121;DHT22;29783;52.504;13.478;2023-11-19T10:01:10;9.10;93.30
44121;DHT22;29783;52.504;13.478;2023-11-19T10:03:38;9.30;92.90
44121;DHT22;29783;52.504;13.478;2023-11-19T10:06:08;9.30;92.60
44121;DHT22;29783;52.504;13.478;2023-11-19T10:08:37;9.30;92.90
44121;DHT22;29783;52.504;13.478;2023-11-19T10:11:05;9.50;92.90
44121;DHT22;29783;52.504;13.478;2023-11-19T10:13:31;9.60;92.80
44121;DHT22;29783;52.504;13.478;2023-11-19T10:15:57;9.70;92.40
44121;DHT22;29783;52.504;13.478;2023-11-19T10:18:26;9.60;92.60
44121;DHT22;29783;52.504;13.478;2023-11-19T10:20:52;9.60;92.40
44121;DHT22;29783;52.504;13.478;2023-11-19T10:23:18;9.50;92.60
44121;DHT22;29783;52.504;13.478;2023-11-19T10:25:43;9.70;93.10
44121;DHT22;29783;52.504;13.478;2023-11-19T10:28:09;9.80;93.00
44121;DHT22;29783;52.504;13.478;2023-11-19T10:30:35;10.00;92.60
44121;DHT22;29783;52.504;13.478;2023-11-19T10:33:08;9.90;92.40
44121;DHT22;29783;52.504;13.478;2023-11-19T10:35:36;10.00;92.20
44121;DHT22;29783;52.504;13.478;2023-11-19T10:38:23;10.00;92.40
44121;DHT22;29783;52.504;13.478;2023-11-19T10:40:49;10.20;92.40
44121;DHT22;29783;52.504;13.478;2023-11-19T10:43:19;10.20;92.20
44121;DHT22;29783;52.504;13.478;2023-11-19T10:45:45;10.40;92.10
44121;DHT22;29783;52.504;13.478;2023-11-19T10:48:11;10.70;91.90
44121;DHT22;29783;52.504;13.478;2023-11-19T10:50:41;11.10;91.30
44121;DHT22;29783;52.504;13.478;2023-11-19T10:53:11;11.20;89.90
44121;DHT22;29783;52.504;13.478;2023-11-19T10:55:41;11.30;89.60
44121;DHT22;29783;52.504;13.478;2023-11-19T10:58:08;11.30;89.50
44121;DHT22;29783;52.504;13.478;2023-11-19T11:00:57;11.40;89.20
44121;DHT22;29783;52.504;13.478;2023-11-19T11:03:26;11.40;89.30
44121;DHT22;29783;52.504;13.478;2023-11-19T11:05:56;11.50;89.30
44121;DHT22;29783;52.504;13.478;2023-11-19T11:08:21;11.50;89.20
44121;DHT22;29783;52.504;13.478;2023-11-19T11:10:55;11.60;89.00
44121;DHT22;29783;52.504;13.478;2023-11-19T11:13:23;11.50;89.10
44121;DHT22;29783;52.504;13.478;2023-11-19T11:15:56;11.40;89.40
44121;DHT22;29783;52.504;13.478;2023-11-19T11:18:23;11.30;89.60
44121;DHT22;29783;52.504;13.478;2023-11-19T11:20:52;11.30;90.00
44121;DHT22;29783;52.504;13.478;2023-11-19T11:25:57;11.30;89.60
44121;DHT22;29783;52.504;13.478;2023-11-19T11:39:14;11.60;87.90
44121;DHT22;29783;52.504;13.478;2023-11-19T11:41:41;11.60;88.10
44121;DHT22;29783;52.504;13.478;2023-11-19T11:44:07;11.80;87.60
44121;DHT22;29783;52.504;13.478;2023-11-19T11:49:09;12.00;87.30
44121;DHT22;29783;52.504;13.478;2023-11-19T11:56:39;12.40;86.10
44121;DHT22;29783;52.504;13.478;2023-11-19T11:59:17;12.70;84.90
44121;DHT22;29783;52.504;13.478;2023-11-19T12:02:00;12.70;84.40
44121;DHT22;29783;52.504;13.478;2023-11-19T12:04:26;12.70;84.00
44121;DHT22;29783;52.504;13.478;2023-11-19T12:07:20;12.70;84.00
44121;DHT22;29783;52.504;13.478;2023-11-19T12:09:48;12.50;84.50
44121;DHT22;29783;52.504;13.478;2023-11-19T12:15:12;12.40;85.00
44121;DHT22;29783;52.504;13.478;2023-11-19T12:17:46;12.40;84.70
44121;DHT22;29783;52.504;13.478;2023-11-19T12:20:15;12.40;85.00
44121;DHT22;29783;52.504;13.478;2023-11-19T12:22:42;12.40;84.80
44121;DHT22;29783;52.504;13.478;2023-11-19T12:25:10;12.40;84.50
44121;DHT22;29783;52.504;13.478;2023-11-19T12:27:39;12.40;84.50
44121;DHT22;29783;52.504;13.478;2023-11-19T12:30:05;12.50;84.20
44121;DHT22;29783;52.504;13.478;2023-11-19T12:32:41;12.50;84.50
44121;DHT22;29783;52.504;13.478;2023-11-19T12:35:08;12.40;84.40
44121;DHT22;29783;52.504;13.478;2023-11-19T12:37:41;12.40;84.50
44121;DHT22;29783;52.504;13.478;2023-11-19T12:40:17;12.30;85.00
44121;DHT22;29783;52.504;13.478;2023-11-19T12:42:47;12.20;85.40
44121;DHT22;29783;52.504;13.478;2023-11-19T12:45:13;12.20;85.60
44121;DHT22;29783;52.504;13.478;2023-11-19T12:47:43;12.10;85.70
44121;DHT22;29783;52.504;13.478;2023-11-19T12:50:10;12.00;86.50
44121;DHT22;29783;52.504;13.478;2023-11-19T12:52:36;11.90;87.20
44121;DHT22;29783;52.504;13.478;2023-11-19T12:55:04;11.80;87.80
44121;DHT22;29783;52.504;13.478;2023-11-19T12:57:40;11.70;87.60
44121;DHT22;29783;52.504;13.478;2023-11-19T13:00:07;11.80;87.50
44121;DHT22;29783;52.504;13.478;2023-11-19T13:02:48;11.90;87.20
44121;DHT22;29783;52.504;13.478;2023-11-19T13:05:28;12.00;86.20
44121;DHT22;29783;52.504;13.478;2023-11-19T13:08:05;12.00;85.60
44121;DHT22;29783;52.504;13.478;2023-11-19T13:10:51;11.90;85.80
44121;DHT22;29783;52.504;13.478;2023-11-19T13:13:17;11.90;85.20
44121;DHT22;29783;52.504;13.478;2023-11-19T13:15:43;12.00;85.10
44121;DHT22;29783;52.504;13.478;2023-11-19T13:18:10;12.30;84.10
44121;DHT22;29783;52.504;13.478;2023-11-19T13:20:36;12.40;83.20
44121;DHT22;29783;52.504;13.478;2023-11-19T13:23:03;12.40;82.80
44121;DHT22;29783;52.504;13.478;2023-11-19T13:25:30;12.70;82.20
44121;DHT22;29783;52.504;13.478;2023-11-19T13:27:56;12.90;81.20
44121;DHT22;29783;52.504;13.478;2023-11-19T13:30:23;13.20;79.90
44121;DHT22;29783;52.504;13.478;2023-11-19T13:32:50;13.10;80.40
44121;DHT22;29783;52.504;13.478;2023-11-19T13:35:16;12.80;80.50
44121;DHT22;29783;52.504;13.478;2023-11-19T13:37:43;12.50;81.60
44121;DHT22;29783;52.504;13.478;2023-11-19T13:40:09;12.30;82.40
44121;DHT22;29783;52.504;13.478;2023-11-19T13:42:36;12.20;82.90
44121;DHT22;29783;52.504;13.478;2023-11-19T13:45:03;12.20;82.80
44121;DHT22;29783;52.504;13.478;2023-11-19T13:47:29;12.20;82.90
44121;DHT22;29783;52.504;13.478;2023-11-19T13:49:54;12.20;83.10
44121;DHT22;29783;52.504;13.478;2023-11-19T13:52:20;12.30;83.20
44121;DHT22;29783;52.504;13.478;2023-11-19T13:54:46;12.20;83.20
44121;DHT22;29783;52.504;13.478;2023-11-19T13:57:11;12.10;83.50
44121;DHT22;29783;52.504;13.478;2023-11-19T13:59:40;12.10;83.60
44121;DHT22;29783;52.504;13.478;2023-11-19T14:02:06;12.10;83.60
44121;DHT22;29783;52.504;13.478;2023-11-19T14:04:33;12.00;83.90
44121;DHT22;29783;52.504;13.478;2023-11-19T14:06:59;12.10;84.00
44121;DHT22;29783;52.504;13.478;2023-11-19T14:09:27;12.00;84.20
44121;DHT22;29783;52.504;13.478;2023-11-19T14:11:54;12.00;84.20
44121;DHT22;29783;52.504;13.478;2023-11-19T14:14:20;12.00;84.30
44121;DHT22;29783;52.504;13.478;2023-11-19T14:16:54;12.00;84.10
44121;DHT22;29783;52.504;13.478;2023-11-19T14:19:20;12.00;84.20
44121;DHT22;29783;52.504;13.478;2023-11-19T14:21:46;12.00;84.50
44121;DHT22;29783;52.504;13.478;2023-11-19T14:24:13;12.00;84.80
44121;DHT22;29783;52.504;13.478;2023-11-19T14:26:39;11.90;85.10
44121;DHT22;29783;52.504;13.478;2023-11-19T14:29:05;11.80;85.40
44121;DHT22;29783;52.504;13.478;2023-11-19T14:31:30;11.80;85.70
44121;DHT22;29783;52.504;13.478;2023-11-19T14:34:00;11.80;85.70
44121;DHT22;29783;52.504;13.478;2023-11-19T14:36:29;11.80;85.70
44121;DHT22;29783;52.504;13.478;2023-11-19T14:38:55;11.80;85.80
44121;DHT22;29783;52.504;13.478;2023-11-19T14:41:20;11.70;85.80
44121;DHT22;29783;52.504;13.478;2023-11-19T14:43:52;11.70;85.80
44121;DHT22;29783;52.504;13.478;2023-11-19T14:46:18;11.80;85.60
44121;DHT22;29783;52.504;13.478;2023-11-19T14:48:44;11.80;85.60
44121;DHT22;29783;52.504;13.478;2023-11-19T14:51:09;11.80;85.50
44121;DHT22;29783;52.504;13.478;2023-11-19T14:53:35;11.70;85.30
44121;DHT22;29783;52.504;13.478;2023-11-19T14:56:01;11.70;85.30
44121;DHT22;29783;52.504;13.478;2023-11-19T14:58:27;11.70;85.30
44121;DHT22;29783;52.504;13.478;2023-11-19T15:00:53;11.80;84.90
44121;DHT22;29783;52.504;13.478;2023-11-19T15:03:19;11.70;84.60
44121;DHT22;29783;52.504;13.478;2023-11-19T15:05:45;11.70;84.50
44121;DHT22;29783;52.504;13.478;2023-11-19T15:08:11;11.70;84.50
44121;DHT22;29783;52.504;13.478;2023-11-19T15:10:37;11.70;84.30
44121;DHT22;29783;52.504;13.478;2023-11-19T15:13:03;11.70;84.30
44121;DHT22;29783;52.504;13.478;2023-11-19T15:15:29;11.70;84.50
44121;DHT22;29783;52.504;13.478;2023-11-19T15:17:55;11.70;84.70
44121;DHT22;29783;52.504;13.478;2023-11-19T15:20:20;11.70;84.70
44121;DHT22;29783;52.504;13.478;2023-11-19T15:22:46;11.70;84.60
44121;DHT22;29783;52.504;13.478;2023-11-19T15:25:12;11.70;85.00
44121;DHT22;29783;52.504;13.478;2023-11-19T15:27:38;11.60;85.60
44121;DHT22;29783;52.504;13.478;2023-11-19T15:30:05;11.50;86.00
44121;DHT22;29783;52.504;13.478;2023-11-19T15:32:30;11.40;86.40
44121;DHT22;29783;52.504;13.478;2023-11-19T15:34:57;11.40;86.60
44121;DHT22;29783;52.504;13.478;2023-11-19T15:37:24;11.30;86.70
44121;DHT22;29783;52.504;13.478;2023-11-19T15:39:49;11.30;86.80
44121;DHT22;29783;52.504;13.478;2023-11-19T15:42:17;11.30;86.90
44121;DHT22;29783;52.504;13.478;2023-11-19T15:44:43;11.30;86.80
44121;DHT22;29783;52.504;13.478;2023-11-19T15:47:09;11.30;87.00
44121;DHT22;29783;52.504;13.478;2023-11-19T15:49:35;11.30;87.00
44121;DHT22;29783;52.504;13.478;2023-11-19T15:52:02;11.20;87.20